sensor_id;sensor_type;location;lat;lon;timestamp;pressure;altitude;pressure_sealevel;temperature;humidity
73341;BME280;61578;52.002;5.468;2022-09-12T00:00:28;101738.13;;;13.99;88.13
73341;BME280;61578;52.002;5.468;2022-09-12T00:01:03;101727.28;;;13.88;88.42
73341;BME280;61578;52.002;5.468;2022-09-12T00:01:37;101652.50;;;13.47;88.36
73341;BME280;61578;52.002;5.468;2022-09-12T00:02:07;101688.22;;;13.59;88.24
73341;BME280;61578;52.002;5.468;2022-09-12T00:02:38;101709.25;;;13.78;88.32
73341;BME280;61578;52.002;5.468;2022-09-12T00:03:08;101670.50;;;13.58;88.15
73341;BME280;61578;52.002;5.468;2022-09-12T00:03:40;101728.72;;;13.94;88.08
73341;BME280;61578;52.002;5.468;2022-09-12T00:04:11;101728.72;;;13.94;88.26
73341;BME280;61578;52.002;5.468;2022-09-12T00:04:42;101649.84;;;13.47;88.23
73341;BME280;61578;52.002;5.468;2022-09-12T00:05:13;101727.00;;;13.93;88.60
73341;BME280;61578;52.002;5.468;2022-09-12T00:05:46;101679.94;;;13.63;88.73
73341;BME280;61578;52.002;5.468;2022-09-12T00:06:21;101684.13;;;13.68;88.74
73341;BME280;61578;52.002;5.468;2022-09-12T00:07:03;101708.91;;;13.84;89.65
73341;BME280;61578;52.002;5.468;2022-09-12T00:07:34;101650.41;;;13.52;89.47
73341;BME280;61578;52.002;5.468;2022-09-12T00:08:04;101726.59;;;13.99;89.32
73341;BME280;61578;52.002;5.468;2022-09-12T00:08:35;101713.38;;;13.83;89.04
73341;BME280;61578;52.002;5.468;2022-09-12T00:09:10;101738.03;;;14.01;88.73
73341;BME280;61578;52.002;5.468;2022-09-12T00:09:42;101722.19;;;13.98;88.38
73341;BME280;61578;52.002;5.468;2022-09-12T00:10:13;101678.09;;;13.64;88.57
73341;BME280;61578;52.002;5.468;2022-09-12T00:10:44;101627.34;;;13.37;88.85
73341;BME280;61578;52.002;5.468;2022-09-12T00:11:15;101741.56;;;14.02;88.60
73341;BME280;61578;52.002;5.468;2022-09-12T00:11:46;101699.91;;;13.85;88.78
73341;BME280;61578;52.002;5.468;2022-09-12T00:12:16;101658.50;;;13.51;88.91
73341;BME280;61578;52.002;5.468;2022-09-12T00:12:47;101714.19;;;13.98;89.13
73341;BME280;61578;52.002;5.468;2022-09-12T00:13:18;101724.19;;;13.94;88.84
73341;BME280;61578;52.002;5.468;2022-09-12T00:13:49;101657.63;;;13.64;88.63
73341;BME280;61578;52.002;5.468;2022-09-12T00:14:20;101636.56;;;13.60;89.48
73341;BME280;61578;52.002;5.468;2022-09-12T00:14:50;101708.84;;;13.98;89.05
73341;BME280;61578;52.002;5.468;2022-09-12T00:15:21;101728.56;;;14.10;88.55
73341;BME280;61578;52.002;5.468;2022-09-12T00:15:52;101668.56;;;13.74;88.92
73341;BME280;61578;52.002;5.468;2022-09-12T00:16:24;101645.25;;;13.49;88.84
73341;BME280;61578;52.002;5.468;2022-09-12T00:16:58;101683.16;;;13.83;88.01
73341;BME280;61578;52.002;5.468;2022-09-12T00:17:29;101710.28;;;14.04;88.30
73341;BME280;61578;52.002;5.468;2022-09-12T00:18:00;101661.53;;;13.73;88.39
73341;BME280;61578;52.002;5.468;2022-09-12T00:18:31;101672.66;;;13.80;89.12
73341;BME280;61578;52.002;5.468;2022-09-12T00:19:04;101716.94;;;14.11;89.19
73341;BME280;61578;52.002;5.468;2022-09-12T00:19:35;101657.16;;;13.72;88.60
73341;BME280;61578;52.002;5.468;2022-09-12T00:20:08;101719.69;;;14.09;88.46
73341;BME280;61578;52.002;5.468;2022-09-12T00:20:42;101678.94;;;13.79;89.42
73341;BME280;61578;52.002;5.468;2022-09-12T00:21:17;101660.09;;;13.68;88.59
73341;BME280;61578;52.002;5.468;2022-09-12T00:21:48;101624.47;;;13.54;89.04
73341;BME280;61578;52.002;5.468;2022-09-12T00:22:18;101665.06;;;13.74;89.13
73341;BME280;61578;52.002;5.468;2022-09-12T00:22:49;101662.56;;;13.71;88.91
73341;BME280;61578;52.002;5.468;2022-09-12T00:23:20;101665.69;;;13.77;88.92
73341;BME280;61578;52.002;5.468;2022-09-12T00:23:51;101710.91;;;14.07;89.30
73341;BME280;61578;52.002;5.468;2022-09-12T00:24:22;101658.88;;;13.73;89.10
73341;BME280;61578;52.002;5.468;2022-09-12T00:24:53;101714.63;;;14.05;89.48
73341;BME280;61578;52.002;5.468;2022-09-12T00:25:23;101713.59;;;14.07;88.79
73341;BME280;61578;52.002;5.468;2022-09-12T00:25:54;101644.50;;;13.61;88.76
73341;BME280;61578;52.002;5.468;2022-09-12T00:26:25;101642.09;;;13.71;88.71
73341;BME280;61578;52.002;5.468;2022-09-12T00:26:55;101626.75;;;13.60;88.72
73341;BME280;61578;52.002;5.468;2022-09-12T00:27:26;101654.16;;;13.77;88.90
73341;BME280;61578;52.002;5.468;2022-09-12T00:27:57;101667.41;;;13.78;88.77
73341;BME280;61578;52.002;5.468;2022-09-12T00:28:28;101693.69;;;13.98;88.55
73341;BME280;61578;52.002;5.468;2022-09-12T00:28:59;101702.91;;;14.07;88.15
73341;BME280;61578;52.002;5.468;2022-09-12T00:29:29;101703.75;;;14.08;88.35
73341;BME280;61578;52.002;5.468;2022-09-12T00:30:00;101702.06;;;14.07;88.50
73341;BME280;61578;52.002;5.468;2022-09-12T00:30:31;101688.34;;;13.98;88.97
73341;BME280;61578;52.002;5.468;2022-09-12T00:31:08;101700.84;;;13.98;89.23
73341;BME280;61578;52.002;5.468;2022-09-12T00:31:41;101654.16;;;13.77;88.60
73341;BME280;61578;52.002;5.468;2022-09-12T00:32:12;101685.00;;;13.95;89.42
73341;BME280;61578;52.002;5.468;2022-09-12T00:32:42;101700.56;;;14.03;89.81
73341;BME280;61578;52.002;5.468;2022-09-12T00:33:15;101674.28;;;13.82;88.99
73341;BME280;61578;52.002;5.468;2022-09-12T00:33:47;101607.66;;;13.40;88.93
73341;BME280;61578;52.002;5.468;2022-09-12T00:34:18;101701.50;;;14.02;88.97
73341;BME280;61578;52.002;5.468;2022-09-12T00:34:48;101699.69;;;14.02;89.55
73341;BME280;61578;52.002;5.468;2022-09-12T00:35:19;101702.47;;;14.00;88.50
73341;BME280;61578;52.002;5.468;2022-09-12T00:35:51;101688.75;;;13.92;88.74
73341;BME280;61578;52.002;5.468;2022-09-12T00:36:25;101678.09;;;13.78;88.68
73341;BME280;61578;52.002;5.468;2022-09-12T00:36:56;101642.09;;;13.57;89.10
73341;BME280;61578;52.002;5.468;2022-09-12T00:37:27;101639.34;;;13.58;88.86
73341;BME280;61578;52.002;5.468;2022-09-12T00:37:58;101648.28;;;13.57;88.87
73341;BME280;61578;52.002;5.468;2022-09-12T00:38:28;101702.84;;;13.94;88.47
73341;BME280;61578;52.002;5.468;2022-09-12T00:38:59;101704.56;;;13.95;88.76
73341;BME280;61578;52.002;5.468;2022-09-12T00:39:30;101696.66;;;13.94;89.10
73341;BME280;61578;52.002;5.468;2022-09-12T00:40:01;101696.66;;;13.94;88.27
73341;BME280;61578;52.002;5.468;2022-09-12T00:40:32;101682.47;;;13.79;88.05
73341;BME280;61578;52.002;5.468;2022-09-12T00:41:05;101703.16;;;13.90;88.44
73341;BME280;61578;52.002;5.468;2022-09-12T00:41:39;101567.16;;;13.05;88.72
73341;BME280;61578;52.002;5.468;2022-09-12T00:42:10;101708.66;;;13.87;89.02
73341;BME280;61578;52.002;5.468;2022-09-12T00:42:42;101685.06;;;13.81;89.35
73341;BME280;61578;52.002;5.468;2022-09-12T00:43:38;101698.00;;;13.87;89.36
73341;BME280;61578;52.002;5.468;2022-09-12T00:44:48;101685.56;;;13.73;89.83
73341;BME280;61578;52.002;5.468;2022-09-12T00:45:27;101639.06;;;13.49;88.85
73341;BME280;61578;52.002;5.468;2022-09-12T00:46:05;101635.63;;;13.47;89.07
73341;BME280;61578;52.002;5.468;2022-09-12T00:47:32;101672.41;;;13.70;88.90
73341;BME280;61578;52.002;5.468;2022-09-12T00:48:31;101636.91;;;13.41;89.37
73341;BME280;61578;52.002;5.468;2022-09-12T00:49:56;101659.94;;;13.42;89.59
73341;BME280;61578;52.002;5.468;2022-09-12T00:50:13;101581.44;;;13.04;89.06
73341;BME280;61578;52.002;5.468;2022-09-12T00:50:45;101715.47;;;13.78;89.25
73341;BME280;61578;52.002;5.468;2022-09-12T00:51:18;101607.47;;;13.29;89.32
73341;BME280;61578;52.002;5.468;2022-09-12T00:53:10;101690.75;;;13.75;89.25
73341;BME280;61578;52.002;5.468;2022-09-12T00:53:45;101692.56;;;13.74;88.88
73341;BME280;61578;52.002;5.468;2022-09-12T00:54:24;101667.28;;;13.53;89.63
73341;BME280;61578;52.002;5.468;2022-09-12T00:55:25;101680.50;;;13.69;89.50
73341;BME280;61578;52.002;5.468;2022-09-12T00:56:01;101598.59;;;13.14;89.74
73341;BME280;61578;52.002;5.468;2022-09-12T00:56:34;101669.53;;;13.59;88.98
73341;BME280;61578;52.002;5.468;2022-09-12T00:57:12;101703.38;;;13.73;89.12
73341;BME280;61578;52.002;5.468;2022-09-12T00:58:13;101676.09;;;13.68;89.20
73341;BME280;61578;52.002;5.468;2022-09-12T00:58:58;101667.81;;;13.58;88.97
73341;BME280;61578;52.002;5.468;2022-09-12T00:59:42;101692.88;;;13.70;88.86
73341;BME280;61578;52.002;5.468;2022-09-12T01:00:21;101689.44;;;13.68;89.30
73341;BME280;61578;52.002;5.468;2022-09-12T01:00:56;101639.75;;;13.38;89.06
73341;BME280;61578;52.002;5.468;2022-09-12T01:01:28;101570.59;;;12.93;89.35
73341;BME280;61578;52.002;5.468;2022-09-12T01:01:59;101677.66;;;13.57;89.71
73341;BME280;61578;52.002;5.468;2022-09-12T01:02:30;101700.97;;;13.68;89.34
73341;BME280;61578;52.002;5.468;2022-09-12T01:03:09;101599.56;;;13.13;89.17
73341;BME280;61578;52.002;5.468;2022-09-12T01:03:44;101654.97;;;13.50;88.89
73341;BME280;61578;52.002;5.468;2022-09-12T01:04:17;101685.84;;;13.69;88.74
73341;BME280;61578;52.002;5.468;2022-09-12T01:04:51;101618.63;;;13.21;88.77
73341;BME280;61578;52.002;5.468;2022-09-12T01:05:23;101656.88;;;13.48;88.92
73341;BME280;61578;52.002;5.468;2022-09-12T01:06:09;101576.97;;;13.04;89.26
73341;BME280;61578;52.002;5.468;2022-09-12T01:06:49;101675.25;;;13.67;89.76
73341;BME280;61578;52.002;5.468;2022-09-12T01:07:21;101564.88;;;12.99;89.57
73341;BME280;61578;52.002;5.468;2022-09-12T01:07:52;101678.78;;;13.68;89.35
73341;BME280;61578;52.002;5.468;2022-09-12T01:08:27;101611.00;;;13.29;89.55
73341;BME280;61578;52.002;5.468;2022-09-12T01:08:58;101630.88;;;13.38;89.05
73341;BME280;61578;52.002;5.468;2022-09-12T01:09:33;101639.66;;;13.40;88.89
73341;BME280;61578;52.002;5.468;2022-09-12T01:10:08;101577.34;;;12.98;88.74
73341;BME280;61578;52.002;5.468;2022-09-12T01:10:41;101637.00;;;13.40;89.20
73341;BME280;61578;52.002;5.468;2022-09-12T01:11:13;101693.94;;;13.67;89.34
73341;BME280;61578;52.002;5.468;2022-09-12T01:11:47;101696.69;;;13.66;89.21
73341;BME280;61578;52.002;5.468;2022-09-12T01:12:20;101679.72;;;13.67;89.30
73341;BME280;61578;52.002;5.468;2022-09-12T01:12:50;101679.72;;;13.67;90.05
73341;BME280;61578;52.002;5.468;2022-09-12T01:13:22;101660.88;;;13.55;89.23
73341;BME280;61578;52.002;5.468;2022-09-12T01:13:53;101683.34;;;13.66;88.80
73341;BME280;61578;52.002;5.468;2022-09-12T01:14:24;101602.53;;;13.22;88.83
73341;BME280;61578;52.002;5.468;2022-09-12T01:14:55;101620.63;;;13.32;88.25
73341;BME280;61578;52.002;5.468;2022-09-12T01:15:26;101622.59;;;13.28;89.59
73341;BME280;61578;52.002;5.468;2022-09-12T01:15:56;101683.56;;;13.62;89.59
73341;BME280;61578;52.002;5.468;2022-09-12T01:16:27;101599.47;;;13.14;88.96
73341;BME280;61578;52.002;5.468;2022-09-12T01:16:58;101685.28;;;13.63;89.11
73341;BME280;61578;52.002;5.468;2022-09-12T01:18:02;101585.72;;;13.06;89.13
73341;BME280;61578;52.002;5.468;2022-09-12T01:19:05;101676.69;;;13.58;88.98
73341;BME280;61578;52.002;5.468;2022-09-12T01:20:06;101679.38;;;13.58;89.31
73341;BME280;61578;52.002;5.468;2022-09-12T01:31:21;101675.56;;;13.62;89.02
73341;BME280;61578;52.002;5.468;2022-09-12T01:32:28;101641.47;;;13.39;89.51
73341;BME280;61578;52.002;5.468;2022-09-12T01:34:24;101657.28;;;13.42;89.26
73341;BME280;61578;52.002;5.468;2022-09-12T01:36:18;101652.50;;;13.47;89.18
73341;BME280;61578;52.002;5.468;2022-09-12T01:37:26;101666.13;;;13.57;88.82
73341;BME280;61578;52.002;5.468;2022-09-12T01:38:12;101658.28;;;13.54;88.91
73341;BME280;61578;52.002;5.468;2022-09-12T01:39:49;101661.09;;;13.52;89.26
73341;BME280;61578;52.002;5.468;2022-09-12T01:41:10;101661.38;;;13.48;89.19
73341;BME280;61578;52.002;5.468;2022-09-12T01:43:18;101663.00;;;13.50;89.24
73341;BME280;61578;52.002;5.468;2022-09-12T01:45:20;101667.38;;;13.37;89.61
73341;BME280;61578;52.002;5.468;2022-09-12T01:46:20;101569.53;;;12.95;89.63
73341;BME280;61578;52.002;5.468;2022-09-12T01:47:17;101651.19;;;13.40;88.98
73341;BME280;61578;52.002;5.468;2022-09-12T01:48:19;101665.84;;;13.47;89.94
73341;BME280;61578;52.002;5.468;2022-09-12T01:49:02;101661.28;;;13.49;89.32
73341;BME280;61578;52.002;5.468;2022-09-12T01:49:59;101666.59;;;13.49;89.20
73341;BME280;61578;52.002;5.468;2022-09-12T01:50:51;101663.16;;;13.47;88.97
73341;BME280;61578;52.002;5.468;2022-09-12T01:51:43;101657.06;;;13.45;89.02
73341;BME280;61578;52.002;5.468;2022-09-12T01:52:41;101651.72;;;13.45;88.77
73341;BME280;61578;52.002;5.468;2022-09-12T01:53:25;101652.69;;;13.44;88.99
73341;BME280;61578;52.002;5.468;2022-09-12T01:54:26;101633.09;;;13.31;88.89
73341;BME280;61578;52.002;5.468;2022-09-12T01:55:13;101629.66;;;13.29;89.07
73341;BME280;61578;52.002;5.468;2022-09-12T01:56:01;101672.22;;;13.45;89.12
73341;BME280;61578;52.002;5.468;2022-09-12T01:56:40;101602.22;;;13.13;88.90
73341;BME280;61578;52.002;5.468;2022-09-12T01:57:22;101665.06;;;13.45;89.44
73341;BME280;61578;52.002;5.468;2022-09-12T01:58:12;101652.59;;;13.46;88.66
73341;BME280;61578;52.002;5.468;2022-09-12T01:58:55;101638.13;;;13.36;88.70
73341;BME280;61578;52.002;5.468;2022-09-12T01:59:40;101585.72;;;13.06;89.52
73341;BME280;61578;52.002;5.468;2022-09-12T02:00:16;101619.66;;;13.33;88.98
73341;BME280;61578;52.002;5.468;2022-09-12T02:01:14;101645.66;;;13.43;88.33
73341;BME280;61578;52.002;5.468;2022-09-12T02:02:15;101644.69;;;13.44;88.89
73341;BME280;61578;52.002;5.468;2022-09-12T02:03:50;101638.97;;;13.36;88.24
73341;BME280;61578;52.002;5.468;2022-09-12T02:04:32;101589.63;;;12.86;88.34
73341;BME280;61578;52.002;5.468;2022-09-12T02:05:33;101626.81;;;13.32;89.03
73341;BME280;61578;52.002;5.468;2022-09-12T02:06:17;101616.72;;;13.23;88.96
73341;BME280;61578;52.002;5.468;2022-09-12T02:06:59;101611.16;;;13.26;89.68
73341;BME280;61578;52.002;5.468;2022-09-12T02:07:44;101591.66;;;13.11;89.36
73341;BME280;61578;52.002;5.468;2022-09-12T02:08:25;101599.75;;;13.24;88.86
73341;BME280;61578;52.002;5.468;2022-09-12T02:09:06;101618.31;;;13.25;88.71
73341;BME280;61578;52.002;5.468;2022-09-12T02:10:30;101618.13;;;13.29;89.04
73341;BME280;61578;52.002;5.468;2022-09-12T02:11:10;101620.72;;;13.30;88.80
73341;BME280;61578;52.002;5.468;2022-09-12T02:11:44;101622.97;;;13.36;88.67
73341;BME280;61578;52.002;5.468;2022-09-12T02:12:25;101549.66;;;12.86;88.45
73341;BME280;61578;52.002;5.468;2022-09-12T02:13:14;101605.94;;;13.24;88.36
73341;BME280;61578;52.002;5.468;2022-09-12T02:14:05;101563.84;;;13.01;88.39
73341;BME280;61578;52.002;5.468;2022-09-12T02:14:47;101620.13;;;13.39;88.70
73341;BME280;61578;52.002;5.468;2022-09-12T02:15:28;101612.63;;;13.32;89.26
73341;BME280;61578;52.002;5.468;2022-09-12T02:17:12;101601.28;;;13.28;88.99
73341;BME280;61578;52.002;5.468;2022-09-12T02:17:49;101628.91;;;13.41;88.84
73341;BME280;61578;52.002;5.468;2022-09-12T02:18:26;101575.75;;;13.10;88.54
73341;BME280;61578;52.002;5.468;2022-09-12T02:19:08;101580.88;;;12.99;88.51
73341;BME280;61578;52.002;5.468;2022-09-12T02:19:46;101617.47;;;13.39;88.92
73341;BME280;61578;52.002;5.468;2022-09-12T02:20:26;101614.44;;;13.31;88.98
73341;BME280;61578;52.002;5.468;2022-09-12T02:21:00;101628.81;;;13.43;88.84
73341;BME280;61578;52.002;5.468;2022-09-12T02:21:39;101605.66;;;13.29;88.90
73341;BME280;61578;52.002;5.468;2022-09-12T02:22:22;101597.84;;;13.26;88.53
73341;BME280;61578;52.002;5.468;2022-09-12T02:22:57;101623.56;;;13.41;88.57
73341;BME280;61578;52.002;5.468;2022-09-12T02:23:31;101608.13;;;13.32;88.92
73341;BME280;61578;52.002;5.468;2022-09-12T02:24:09;101615.66;;;13.40;88.88
73341;BME280;61578;52.002;5.468;2022-09-12T02:24:51;101612.03;;;13.26;89.16
73341;BME280;61578;52.002;5.468;2022-09-12T02:25:28;101605.56;;;13.31;89.26
73341;BME280;61578;52.002;5.468;2022-09-12T02:26:16;101596.03;;;13.26;89.06
73341;BME280;61578;52.002;5.468;2022-09-12T02:26:58;101571.25;;;13.10;88.98
73341;BME280;61578;52.002;5.468;2022-09-12T02:28:03;101617.56;;;13.38;88.79
73341;BME280;61578;52.002;5.468;2022-09-12T02:28:41;101621.06;;;13.38;89.00
73341;BME280;61578;52.002;5.468;2022-09-12T02:29:12;101628.31;;;13.36;88.50
73341;BME280;61578;52.002;5.468;2022-09-12T02:29:44;101614.97;;;13.36;88.82
73341;BME280;61578;52.002;5.468;2022-09-12T02:30:16;101557.75;;;12.99;89.25
73341;BME280;61578;52.002;5.468;2022-09-12T02:31:10;101615.84;;;13.37;89.83
73341;BME280;61578;52.002;5.468;2022-09-12T02:31:56;101614.97;;;13.36;89.40
73341;BME280;61578;52.002;5.468;2022-09-12T02:32:39;101585.00;;;13.18;89.12
73341;BME280;61578;52.002;5.468;2022-09-12T02:35:53;101590.03;;;13.09;88.79
73341;BME280;61578;52.002;5.468;2022-09-12T02:36:38;101617.09;;;13.31;88.34
73341;BME280;61578;52.002;5.468;2022-09-12T02:37:36;101555.56;;;12.92;89.10
73341;BME280;61578;52.002;5.468;2022-09-12T02:39:11;101624.22;;;13.31;89.29
73341;BME280;61578;52.002;5.468;2022-09-12T02:39:42;101622.44;;;13.31;89.63
73341;BME280;61578;52.002;5.468;2022-09-12T02:40:13;101579.16;;;12.98;89.53
73341;BME280;61578;52.002;5.468;2022-09-12T02:40:44;101617.19;;;13.30;90.00
73341;BME280;61578;52.002;5.468;2022-09-12T02:41:20;101593.09;;;13.17;90.05
73341;BME280;61578;52.002;5.468;2022-09-12T02:41:54;101625.19;;;13.30;89.61
73341;BME280;61578;52.002;5.468;2022-09-12T02:42:29;101620.72;;;13.30;89.23
73341;BME280;61578;52.002;5.468;2022-09-12T02:43:01;101570.41;;;12.96;89.30
73341;BME280;61578;52.002;5.468;2022-09-12T02:43:33;101523.47;;;12.65;89.65
73341;BME280;61578;52.002;5.468;2022-09-12T02:44:05;101552.22;;;12.88;89.66
73341;BME280;61578;52.002;5.468;2022-09-12T02:44:36;101604.88;;;13.27;90.32
73341;BME280;61578;52.002;5.468;2022-09-12T02:45:08;101591.56;;;13.13;89.94
73341;BME280;61578;52.002;5.468;2022-09-12T02:45:40;101518.38;;;12.62;89.58
73341;BME280;61578;52.002;5.468;2022-09-12T02:46:21;101620.13;;;13.25;89.54
73341;BME280;61578;52.002;5.468;2022-09-12T02:47:14;101615.75;;;13.24;89.94
73341;BME280;61578;52.002;5.468;2022-09-12T02:47:59;101577.81;;;13.05;90.18
73341;BME280;61578;52.002;5.468;2022-09-12T02:48:39;101593.28;;;13.14;89.87
73341;BME280;61578;52.002;5.468;2022-09-12T02:49:13;101574.97;;;12.94;89.94
73341;BME280;61578;52.002;5.468;2022-09-12T02:49:46;101604.22;;;13.23;90.48
73341;BME280;61578;52.002;5.468;2022-09-12T02:50:17;101597.66;;;13.15;90.28
73341;BME280;61578;52.002;5.468;2022-09-12T02:50:48;101607.75;;;13.24;89.61
73341;BME280;61578;52.002;5.468;2022-09-12T02:51:19;101541.78;;;12.71;90.00
73341;BME280;61578;52.002;5.468;2022-09-12T02:51:51;101586.59;;;13.07;90.03
73341;BME280;61578;52.002;5.468;2022-09-12T02:52:22;101547.16;;;12.83;90.13
73341;BME280;61578;52.002;5.468;2022-09-12T02:52:54;101534.81;;;12.68;89.42
73341;BME280;61578;52.002;5.468;2022-09-12T02:53:29;101476.50;;;12.49;89.90
73341;BME280;61578;52.002;5.468;2022-09-12T02:54:00;101574.88;;;13.09;90.11
73341;BME280;61578;52.002;5.468;2022-09-12T02:54:32;101561.38;;;12.98;89.49
73341;BME280;61578;52.002;5.468;2022-09-12T02:55:04;101601.47;;;13.25;89.57
73341;BME280;61578;52.002;5.468;2022-09-12T02:55:39;101564.78;;;12.86;89.61
73341;BME280;61578;52.002;5.468;2022-09-12T02:56:18;101516.44;;;12.64;90.03
73341;BME280;61578;52.002;5.468;2022-09-12T02:56:54;101618.41;;;13.24;89.56
73341;BME280;61578;52.002;5.468;2022-09-12T02:57:25;101537.38;;;12.84;89.42
73341;BME280;61578;52.002;5.468;2022-09-12T02:57:56;101541.25;;;12.93;89.58
73341;BME280;61578;52.002;5.468;2022-09-12T02:58:30;101584.69;;;13.09;89.73
73341;BME280;61578;52.002;5.468;2022-09-12T02:59:06;101588.53;;;13.19;89.98
73341;BME280;61578;52.002;5.468;2022-09-12T02:59:39;101600.50;;;13.26;89.74
73341;BME280;61578;52.002;5.468;2022-09-12T03:00:10;101596.22;;;13.23;89.45
73341;BME280;61578;52.002;5.468;2022-09-12T03:03:36;101598.06;;;13.23;89.92
73341;BME280;61578;52.002;5.468;2022-09-12T03:05:31;101600.81;;;13.21;89.52
73341;BME280;61578;52.002;5.468;2022-09-12T03:09:11;101554.03;;;12.87;89.59
73341;BME280;61578;52.002;5.468;2022-09-12T03:14:25;101589.56;;;13.16;89.81
73341;BME280;61578;52.002;5.468;2022-09-12T03:15:27;101591.28;;;13.17;90.35
73341;BME280;61578;52.002;5.468;2022-09-12T03:17:29;101593.09;;;13.17;89.79
73341;BME280;61578;52.002;5.468;2022-09-12T03:18:24;101594.03;;;13.16;90.34
73341;BME280;61578;52.002;5.468;2022-09-12T03:19:42;101560.91;;;12.92;90.12
73341;BME280;61578;52.002;5.468;2022-09-12T03:25:33;101560.31;;;13.01;89.61
73341;BME280;61578;52.002;5.468;2022-09-12T03:26:28;101588.53;;;13.19;89.60
73341;BME280;61578;52.002;5.468;2022-09-12T03:27:14;101593.75;;;13.20;89.25
73341;BME280;61578;52.002;5.468;2022-09-12T03:28:00;101555.16;;;12.83;89.80
73341;BME280;61578;52.002;5.468;2022-09-12T03:28:38;101571.06;;;13.13;89.95
73341;BME280;61578;52.002;5.468;2022-09-12T03:29:13;101538.44;;;12.81;89.86
73341;BME280;61578;52.002;5.468;2022-09-12T03:29:47;101454.91;;;12.40;89.66
73341;BME280;61578;52.002;5.468;2022-09-12T03:30:19;101523.13;;;12.71;89.73
73341;BME280;61578;52.002;5.468;2022-09-12T03:30:50;101604.44;;;13.20;90.49
73341;BME280;61578;52.002;5.468;2022-09-12T03:31:23;101602.03;;;13.16;89.81
73341;BME280;61578;52.002;5.468;2022-09-12T03:31:56;101581.28;;;13.21;89.62
73341;BME280;61578;52.002;5.468;2022-09-12T03:32:42;101545.47;;;12.97;89.94
73341;BME280;61578;52.002;5.468;2022-09-12T03:33:18;101497.03;;;12.62;89.66
73341;BME280;61578;52.002;5.468;2022-09-12T03:33:50;101590.88;;;13.23;89.29
73341;BME280;61578;52.002;5.468;2022-09-12T03:34:23;101589.94;;;13.24;89.93
73341;BME280;61578;52.002;5.468;2022-09-12T03:34:55;101584.59;;;13.24;89.92
73341;BME280;61578;52.002;5.468;2022-09-12T03:35:26;101513.47;;;12.82;89.90
73341;BME280;61578;52.002;5.468;2022-09-12T03:35:57;101486.94;;;12.67;89.98
73341;BME280;61578;52.002;5.468;2022-09-12T03:36:29;101565.66;;;13.15;90.10
73341;BME280;61578;52.002;5.468;2022-09-12T03:37:00;101581.75;;;13.27;89.99
73341;BME280;61578;52.002;5.468;2022-09-12T03:37:31;101590.59;;;13.28;90.14
73341;BME280;61578;52.002;5.468;2022-09-12T03:38:02;101566.28;;;13.04;89.59
73341;BME280;61578;52.002;5.468;2022-09-12T03:38:34;101580.88;;;13.27;89.57
73341;BME280;61578;52.002;5.468;2022-09-12T03:39:04;101508.25;;;12.81;89.85
73341;BME280;61578;52.002;5.468;2022-09-12T03:39:35;101580.97;;;13.25;89.77
73341;BME280;61578;52.002;5.468;2022-09-12T03:40:08;101511.13;;;12.78;90.01
73341;BME280;61578;52.002;5.468;2022-09-12T03:40:39;101530.59;;;12.93;89.70
73341;BME280;61578;52.002;5.468;2022-09-12T03:41:10;101558.03;;;13.09;89.45
73341;BME280;61578;52.002;5.468;2022-09-12T03:41:41;101520.25;;;12.88;89.67
73341;BME280;61578;52.002;5.468;2022-09-12T03:42:12;101505.78;;;12.78;90.31
73341;BME280;61578;52.002;5.468;2022-09-12T03:42:42;101542.44;;;12.88;89.55
73341;BME280;61578;52.002;5.468;2022-09-12T03:43:13;101557.75;;;12.99;89.84
73341;BME280;61578;52.002;5.468;2022-09-12T03:43:44;101585.38;;;13.12;89.82
73341;BME280;61578;52.002;5.468;2022-09-12T03:44:16;101538.31;;;12.97;89.73
73341;BME280;61578;52.002;5.468;2022-09-12T03:44:47;101561.28;;;13.14;89.63
73341;BME280;61578;52.002;5.468;2022-09-12T03:45:17;101515.19;;;12.83;89.70
73341;BME280;61578;52.002;5.468;2022-09-12T03:45:51;101580.13;;;13.25;89.89
73341;BME280;61578;52.002;5.468;2022-09-12T03:46:22;101437.84;;;12.42;89.84
73341;BME280;61578;52.002;5.468;2022-09-12T03:46:53;101577.47;;;13.25;89.47
73341;BME280;61578;52.002;5.468;2022-09-12T03:47:24;101561.28;;;13.14;89.29
73341;BME280;61578;52.002;5.468;2022-09-12T03:47:55;101532.31;;;12.94;89.08
73341;BME280;61578;52.002;5.468;2022-09-12T03:48:26;101557.34;;;13.05;89.33
73341;BME280;61578;52.002;5.468;2022-09-12T03:48:57;101562.22;;;13.13;89.24
73341;BME280;61578;52.002;5.468;2022-09-12T03:49:27;101578.53;;;13.22;89.31
73341;BME280;61578;52.002;5.468;2022-09-12T03:49:58;101577.66;;;13.22;88.73
73341;BME280;61578;52.002;5.468;2022-09-12T03:50:29;101593.66;;;13.22;89.56
73341;BME280;61578;52.002;5.468;2022-09-12T03:51:01;101505.69;;;12.65;89.53
73341;BME280;61578;52.002;5.468;2022-09-12T03:51:33;101555.94;;;13.14;89.50
73341;BME280;61578;52.002;5.468;2022-09-12T03:52:04;101581.06;;;13.24;89.82
73341;BME280;61578;52.002;5.468;2022-09-12T03:52:34;101513.88;;;12.76;89.29
73341;BME280;61578;52.002;5.468;2022-09-12T03:53:05;101596.34;;;13.22;89.03
73341;BME280;61578;52.002;5.468;2022-09-12T03:53:36;101575.00;;;13.22;89.06
73341;BME280;61578;52.002;5.468;2022-09-12T03:54:06;101569.66;;;13.22;89.73
73341;BME280;61578;52.002;5.468;2022-09-12T03:54:37;101545.72;;;13.06;89.22
73341;BME280;61578;52.002;5.468;2022-09-12T03:55:09;101516.03;;;12.84;89.49
73341;BME280;61578;52.002;5.468;2022-09-12T03:55:40;101538.13;;;12.86;89.75
73341;BME280;61578;52.002;5.468;2022-09-12T03:56:12;101451.94;;;12.44;90.16
73341;BME280;61578;52.002;5.468;2022-09-12T03:56:43;101572.34;;;13.22;90.07
73341;BME280;61578;52.002;5.468;2022-09-12T03:57:14;101485.41;;;12.63;89.92
73341;BME280;61578;52.002;5.468;2022-09-12T03:57:45;101504.16;;;12.75;89.24